Terminal Aerodrome Forecast
Issued by NWS Cleveland, OH

Home | Current Version | Previous Version | Graphics & Text | Print | Product List | Glossary On
Versions: 1 2 3 4 5 6 7 8 9 10 11 12 13 14 15 16 17 18
000
FTUS41 KCLE 251700
TAFERI
TAF
KERI 251739Z 2518/2618 31008KT P6SM SCT025
     FM252200 36005KT P6SM BKN200
     FM260300 06005KT P6SM OVC080
     FM261200 04006KT 3SM -SN OVC025
     FM261400 04008KT 1 1/2SM -SN BR OVC015=

USA.gov is the U.S. government's official web portal to all federal, state and local government web resources and services.